createdAt,value
2018-05-11T00:00:35.912Z,13.73
2018-05-11T00:03:03.442Z,13.73
2018-05-11T00:05:30.923Z,13.72
2018-05-11T00:07:58.545Z,13.72
2018-05-11T00:10:26.046Z,13.75
2018-05-11T00:12:53.567Z,13.76
2018-05-11T00:15:21.113Z,13.75
2018-05-11T00:17:48.674Z,13.72
2018-05-11T00:20:16.199Z,13.72
2018-05-11T00:22:43.757Z,13.70
2018-05-11T00:25:11.401Z,13.69
2018-05-11T00:27:40.694Z,13.70
2018-05-11T00:30:08.281Z,13.69
2018-05-11T00:32:35.807Z,13.65
2018-05-11T00:35:05.596Z,13.66
2018-05-11T00:37:34.011Z,13.68
2018-05-11T00:40:01.690Z,13.72
2018-05-11T00:42:29.273Z,13.72
2018-05-11T00:44:58.543Z,13.71
2018-05-11T00:47:26.118Z,13.63
2018-05-11T00:49:53.678Z,13.60
2018-05-11T00:52:21.210Z,13.55
2018-05-11T00:54:48.728Z,13.54
2018-05-11T00:57:19.145Z,13.49
2018-05-11T00:59:46.695Z,13.51
2018-05-11T01:02:14.332Z,13.50
2018-05-11T01:04:41.874Z,13.53
2018-05-11T01:07:09.484Z,13.60
2018-05-11T01:09:37.050Z,13.58
2018-05-11T01:12:04.712Z,13.52
2018-05-11T01:14:33.917Z,13.51
2018-05-11T01:17:01.555Z,13.52
2018-05-11T01:19:29.041Z,13.48
2018-05-11T01:21:56.601Z,13.48
2018-05-11T01:24:24.215Z,13.46
2018-05-11T01:26:51.776Z,13.44
2018-05-11T01:29:19.408Z,13.42
2018-05-11T01:31:46.943Z,13.47
2018-05-11T01:34:14.528Z,13.45
2018-05-11T01:36:42.307Z,13.40
2018-05-11T01:39:09.825Z,13.39
2018-05-11T01:41:37.427Z,13.40
2018-05-11T01:44:05.697Z,13.43
2018-05-11T01:46:33.268Z,13.40
2018-05-11T01:49:00.802Z,13.37
2018-05-11T01:51:28.335Z,13.38
2018-05-11T01:53:55.850Z,13.33
2018-05-11T01:56:25.267Z,13.36
2018-05-11T01:58:52.798Z,13.39
2018-05-11T02:01:20.333Z,13.39
2018-05-11T02:03:47.916Z,13.39
2018-05-11T02:06:15.501Z,13.40
2018-05-11T02:08:43.068Z,13.36
2018-05-11T02:11:10.592Z,13.31
2018-05-11T02:13:38.218Z,13.31
2018-05-11T02:16:05.755Z,13.27
2018-05-11T02:18:33.422Z,13.25
2018-05-11T02:21:00.870Z,13.27
2018-05-11T02:23:28.467Z,13.21
2018-05-11T02:25:56.117Z,13.15
2018-05-11T02:28:23.711Z,13.15
2018-05-11T02:30:51.326Z,13.19
2018-05-11T02:33:20.261Z,13.17
2018-05-11T02:35:47.928Z,13.08
2018-05-11T02:38:15.449Z,13.07
2018-05-11T02:40:42.978Z,13.04
2018-05-11T02:43:10.522Z,13.03
2018-05-11T02:45:38.087Z,13.00
2018-05-11T02:48:05.610Z,12.99
2018-05-11T02:50:33.160Z,12.98
2018-05-11T02:53:01.076Z,12.95
2018-05-11T02:55:28.605Z,12.97
2018-05-11T02:57:56.162Z,12.98
2018-05-11T03:00:23.769Z,12.97
2018-05-11T03:02:51.426Z,12.96
2018-05-11T03:05:18.971Z,13.00
2018-05-11T03:07:48.400Z,12.99
2018-05-11T03:10:15.937Z,12.95
2018-05-11T03:12:43.487Z,12.95
2018-05-11T03:15:11.087Z,12.97
2018-05-11T03:17:38.599Z,12.97
2018-05-11T03:20:06.165Z,12.99
2018-05-11T03:22:33.668Z,12.92
2018-05-11T03:25:01.344Z,12.90
2018-05-11T03:27:30.098Z,12.89
2018-05-11T03:29:57.649Z,12.92
2018-05-11T03:32:25.180Z,12.93
2018-05-11T03:34:52.682Z,12.91
2018-05-11T03:37:20.287Z,12.89
2018-05-11T03:39:47.851Z,12.83
2018-05-11T03:42:15.383Z,12.86
2018-05-11T03:44:42.896Z,12.89
2018-05-11T03:47:10.469Z,12.89
2018-05-11T03:49:38.118Z,12.93
2018-05-11T03:52:05.658Z,12.94
2018-05-11T03:54:33.439Z,12.91
2018-05-11T03:57:00.980Z,12.91
2018-05-11T03:59:28.493Z,12.93
2018-05-11T04:02:07.945Z,12.94
2018-05-11T04:04:47.483Z,12.95
2018-05-11T04:07:26.760Z,12.97
2018-05-11T04:09:54.295Z,12.98
2018-05-11T04:12:21.956Z,12.97
2018-05-11T04:14:49.492Z,13.00
2018-05-11T04:17:17.225Z,12.99
2018-05-11T04:19:44.802Z,12.99
2018-05-11T04:22:12.324Z,12.94
2018-05-11T04:24:39.918Z,12.96
2018-05-11T04:27:07.460Z,13.00
2018-05-11T04:29:35.009Z,12.98
2018-05-11T04:32:03.261Z,13.03
2018-05-11T04:34:30.796Z,13.05
2018-05-11T04:36:58.357Z,13.06
2018-05-11T04:39:25.875Z,13.04
2018-05-11T04:41:53.473Z,13.03
2018-05-11T04:44:21.006Z,13.07
2018-05-11T04:46:48.567Z,13.12
2018-05-11T04:49:16.269Z,13.16
2018-05-11T04:51:43.806Z,13.21
2018-05-11T04:54:11.339Z,13.22
2018-05-11T04:56:38.861Z,13.26
2018-05-11T04:59:06.383Z,13.27
2018-05-11T05:01:34.010Z,13.30
2018-05-11T05:04:01.651Z,13.28
2018-05-11T05:06:29.923Z,13.32
2018-05-11T05:08:57.446Z,13.42
2018-05-11T05:11:24.967Z,13.42
2018-05-11T05:13:52.553Z,13.47
2018-05-11T05:16:20.078Z,13.41
2018-05-11T05:18:47.609Z,13.36
2018-05-11T05:21:15.135Z,13.38
2018-05-11T05:23:42.661Z,13.43
2018-05-11T05:26:10.297Z,13.50
2018-05-11T05:28:37.901Z,13.55
2018-05-11T05:31:05.499Z,13.57
2018-05-11T05:33:33.130Z,13.57
2018-05-11T05:36:00.722Z,13.52
2018-05-11T05:38:28.360Z,13.56
2018-05-11T05:40:55.873Z,13.63
2018-05-11T05:43:26.032Z,13.63
2018-05-11T05:45:55.550Z,13.65
2018-05-11T05:48:23.068Z,13.64
2018-05-11T05:50:50.593Z,13.67
2018-05-11T05:53:18.177Z,13.67
2018-05-11T05:55:45.728Z,13.68
2018-05-11T05:58:13.336Z,13.70
2018-05-11T06:00:41.054Z,13.77
2018-05-11T06:03:08.705Z,13.81
2018-05-11T06:05:36.370Z,13.83
2018-05-11T06:08:03.917Z,13.74
2018-05-11T06:10:31.495Z,13.78
2018-05-11T06:12:59.648Z,13.80
2018-05-11T06:15:27.200Z,13.84
2018-05-11T06:17:55.513Z,13.86
2018-05-11T06:20:23.083Z,13.86
2018-05-11T06:22:52.418Z,13.90
2018-05-11T06:25:20.061Z,13.91
2018-05-11T06:27:47.727Z,13.99
2018-05-11T06:30:15.245Z,14.04
2018-05-11T06:32:42.809Z,14.04
2018-05-11T06:35:10.411Z,14.09
2018-05-11T06:37:37.965Z,14.13
2018-05-11T06:40:05.483Z,14.21
2018-05-11T06:42:32.999Z,14.22
2018-05-11T06:45:03.231Z,14.25
2018-05-11T06:47:32.887Z,14.32
2018-05-11T06:50:00.571Z,14.41
2018-05-11T06:52:28.179Z,14.51
2018-05-11T06:54:55.739Z,14.58
2018-05-11T06:57:24.132Z,14.73
2018-05-11T06:59:51.711Z,14.85
2018-05-11T07:02:19.266Z,14.72
2018-05-11T07:04:46.915Z,14.67
2018-05-11T07:07:14.501Z,14.79
2018-05-11T07:09:43.792Z,14.85
2018-05-11T07:12:11.337Z,14.81
2018-05-11T07:14:40.018Z,14.81
2018-05-11T07:17:07.571Z,14.85
2018-05-11T07:19:35.191Z,14.91
2018-05-11T07:22:02.838Z,14.98
2018-05-11T07:24:30.496Z,15.01
2018-05-11T07:26:58.052Z,15.01
2018-05-11T07:29:26.345Z,14.99
2018-05-11T07:31:54.126Z,14.99
2018-05-11T07:34:21.666Z,14.94
2018-05-11T07:36:49.966Z,14.94
2018-05-11T07:39:17.484Z,14.96
2018-05-11T07:41:45.175Z,15.05
2018-05-11T07:44:12.853Z,15.04
2018-05-11T07:46:40.519Z,15.05
2018-05-11T07:49:08.127Z,15.02
2018-05-11T07:51:36.465Z,15.06
2018-05-11T07:54:04.032Z,15.08
2018-05-11T07:56:31.564Z,15.12
2018-05-11T07:58:59.149Z,15.22
2018-05-11T08:01:26.693Z,15.28
2018-05-11T08:03:54.273Z,15.45
2018-05-11T08:06:23.454Z,15.58
2018-05-11T08:08:51.019Z,15.69
2018-05-11T08:11:18.561Z,15.67
2018-05-11T08:13:48.717Z,15.73
2018-05-11T08:16:16.251Z,15.88
2018-05-11T08:18:43.817Z,15.90
2018-05-11T08:21:11.357Z,15.95
2018-05-11T08:23:38.921Z,16.02
2018-05-11T08:26:06.507Z,15.99
2018-05-11T08:28:34.073Z,16.10
2018-05-11T08:31:01.615Z,16.14
2018-05-11T08:33:31.804Z,16.05
2018-05-11T08:35:59.450Z,16.08
2018-05-11T08:38:27.040Z,16.24
2018-05-11T08:40:56.317Z,16.35
2018-05-11T08:43:23.860Z,16.39
2018-05-11T08:45:51.382Z,16.32
2018-05-11T08:48:19.024Z,16.29
2018-05-11T08:50:48.481Z,16.39
2018-05-11T08:53:16.075Z,16.37
2018-05-11T08:55:43.864Z,16.43
2018-05-11T08:58:11.531Z,16.46
2018-05-11T09:00:39.779Z,16.33
2018-05-11T09:03:07.437Z,16.28
2018-05-11T09:05:34.907Z,16.30
2018-05-11T09:08:02.585Z,16.47
2018-05-11T09:10:30.133Z,16.71
2018-05-11T09:12:57.697Z,16.72
2018-05-11T09:15:25.219Z,16.59
2018-05-11T09:17:52.782Z,16.68
2018-05-11T09:20:20.389Z,16.87
2018-05-11T09:22:47.907Z,16.98
2018-05-11T09:25:15.562Z,17.06
2018-05-11T09:27:43.911Z,17.05
2018-05-11T09:30:11.509Z,17.16
2018-05-11T09:32:39.763Z,17.25
2018-05-11T09:35:07.405Z,17.27
2018-05-11T09:37:34.943Z,17.30
2018-05-11T09:40:02.545Z,17.34
2018-05-11T09:42:32.387Z,17.21
2018-05-11T09:44:59.907Z,17.19
2018-05-11T09:47:27.507Z,17.21
2018-05-11T09:49:55.159Z,17.42
2018-05-11T09:52:22.721Z,17.59
2018-05-11T09:54:50.347Z,17.45
2018-05-11T09:57:17.975Z,17.51
2018-05-11T09:59:45.517Z,17.59
2018-05-11T10:02:13.091Z,17.59
2018-05-11T10:04:40.637Z,17.52
2018-05-11T10:07:08.227Z,17.63
2018-05-11T10:09:35.725Z,17.83
2018-05-11T10:12:03.284Z,17.88
2018-05-11T10:14:33.209Z,17.73
2018-05-11T10:17:00.757Z,17.73
2018-05-11T10:19:28.334Z,17.70
2018-05-11T10:21:57.617Z,17.85
2018-05-11T10:24:25.219Z,17.95
2018-05-11T10:26:52.753Z,18.07
2018-05-11T10:29:20.316Z,18.06
2018-05-11T10:31:47.875Z,18.18
2018-05-11T10:34:15.494Z,18.23
2018-05-11T10:36:43.012Z,18.31
2018-05-11T10:39:10.648Z,18.41
2018-05-11T10:41:38.206Z,18.25
2018-05-11T10:44:05.754Z,18.24
2018-05-11T10:46:33.352Z,18.16
2018-05-11T10:49:01.009Z,18.16
2018-05-11T10:51:28.549Z,18.14
2018-05-11T10:53:56.102Z,18.23
2018-05-11T10:56:23.645Z,18.31
2018-05-11T10:58:51.185Z,18.26
2018-05-11T11:01:18.739Z,18.36
2018-05-11T11:03:46.291Z,18.26
2018-05-11T11:06:13.863Z,18.27
2018-05-11T11:08:41.433Z,18.30
2018-05-11T11:11:08.956Z,18.49
2018-05-11T11:23:21.585Z,17.83
2018-05-11T11:25:49.213Z,18.06
2018-05-11T11:28:16.757Z,18.33
2018-05-11T11:30:44.345Z,18.58
2018-05-11T11:33:13.858Z,18.65
2018-05-11T11:35:41.433Z,18.47
2018-05-11T11:38:09.029Z,18.47
2018-05-11T11:40:36.679Z,18.41
2018-05-11T11:43:04.215Z,18.68
2018-05-11T11:45:33.027Z,18.83
2018-05-11T11:48:00.701Z,18.95
2018-05-11T11:50:28.250Z,18.84
2018-05-11T11:52:55.935Z,18.88
2018-05-11T11:58:08.051Z,19.04
2018-05-11T12:00:35.525Z,19.03
2018-05-11T12:03:03.015Z,19.15
2018-05-11T12:05:30.486Z,19.30
2018-05-11T12:07:57.959Z,19.38
2018-05-11T12:10:25.488Z,19.54
2018-05-11T12:12:52.967Z,19.52
2018-05-11T12:15:20.481Z,19.56
2018-05-11T12:17:47.996Z,19.61
2018-05-11T12:20:15.496Z,19.70
2018-05-11T12:22:42.987Z,19.77
2018-05-11T12:25:10.501Z,19.72
2018-05-11T12:27:37.984Z,19.77
2018-05-11T12:30:05.488Z,19.81
2018-05-11T12:32:32.997Z,19.86
2018-05-11T12:35:00.503Z,19.97
2018-05-11T12:37:28.001Z,20.05
2018-05-11T12:39:55.489Z,19.97
2018-05-11T12:42:22.988Z,20.05
2018-05-11T12:44:50.515Z,20.00
2018-05-11T12:47:18.054Z,20.23
2018-05-11T12:49:45.596Z,20.34
2018-05-11T12:52:13.057Z,20.54
2018-05-11T12:54:40.568Z,20.70
2018-05-11T12:57:08.029Z,20.66
2018-05-11T12:59:35.513Z,20.73
2018-05-11T13:02:03.010Z,20.98
2018-05-11T13:04:30.501Z,21.10
2018-05-11T13:06:58.004Z,21.22
2018-05-11T13:09:25.513Z,21.39
2018-05-11T13:11:53.039Z,21.56
2018-05-11T13:14:20.521Z,21.60
2018-05-11T13:16:48.014Z,21.80
2018-05-11T13:19:15.536Z,21.85
2018-05-11T13:21:43.016Z,21.81
2018-05-11T13:24:10.584Z,22.05
2018-05-11T13:26:38.102Z,22.07
2018-05-11T13:29:05.578Z,22.15
2018-05-11T13:31:33.071Z,22.38
2018-05-11T13:34:00.552Z,22.36
2018-05-11T13:36:28.066Z,22.40
2018-05-11T13:38:55.564Z,22.68
2018-05-11T13:41:23.036Z,22.85
2018-05-11T13:43:50.722Z,22.95
2018-05-11T13:46:18.198Z,23.15
2018-05-11T13:48:45.699Z,23.19
2018-05-11T13:51:13.173Z,23.24
2018-05-11T13:53:40.711Z,23.44
2018-05-11T13:56:08.343Z,23.62
2018-05-11T13:58:35.783Z,23.78
2018-05-11T14:01:03.254Z,23.75
2018-05-11T14:03:30.838Z,24.05
2018-05-11T14:05:58.278Z,24.16
2018-05-11T14:08:25.760Z,24.41
2018-05-11T14:10:53.250Z,24.97
2018-05-11T14:13:20.744Z,25.18
2018-05-11T14:15:48.245Z,25.66
2018-05-11T14:18:15.716Z,26.00
2018-05-11T14:20:43.210Z,26.36
2018-05-11T14:23:10.674Z,26.90
2018-05-11T14:25:38.170Z,27.12
2018-05-11T14:28:05.899Z,27.38
2018-05-11T14:30:33.646Z,27.66
2018-05-11T14:33:01.130Z,27.42
2018-05-11T14:35:28.773Z,27.18
2018-05-11T14:37:56.274Z,26.14
2018-05-11T14:40:23.785Z,26.22
2018-05-11T14:42:51.506Z,26.40
2018-05-11T14:45:18.976Z,26.84
2018-05-11T14:47:46.538Z,27.30
2018-05-11T14:50:14.037Z,27.47
2018-05-11T14:52:41.531Z,27.54
2018-05-11T14:55:09.004Z,27.25
2018-05-11T14:57:36.500Z,27.19
2018-05-11T15:00:03.993Z,26.52
2018-05-11T15:02:31.721Z,26.71
2018-05-11T15:04:59.220Z,26.69
2018-05-11T15:07:26.695Z,26.81
2018-05-11T15:09:54.208Z,27.28
2018-05-11T15:12:21.699Z,27.56
2018-05-11T15:14:49.207Z,27.20
2018-05-11T15:17:17.003Z,27.31
2018-05-11T15:19:44.512Z,27.34
2018-05-11T15:22:11.987Z,27.37
2018-05-11T15:24:39.450Z,27.38
2018-05-11T15:27:07.245Z,27.57
2018-05-11T15:29:34.714Z,27.80
2018-05-11T15:32:02.226Z,27.69
2018-05-11T15:34:29.955Z,28.10
2018-05-11T15:36:57.425Z,28.10
2018-05-11T15:39:24.929Z,27.87
2018-05-11T15:41:52.382Z,27.49
2018-05-11T15:44:19.913Z,27.46
2018-05-11T15:46:47.463Z,27.78
2018-05-11T15:49:14.936Z,27.81
2018-05-11T15:51:42.417Z,27.53
2018-05-11T15:54:09.908Z,27.60
2018-05-11T15:56:37.390Z,27.36
2018-05-11T15:59:04.951Z,27.19
2018-05-11T16:01:32.353Z,27.26
2018-05-11T16:03:59.866Z,27.29
2018-05-11T16:06:27.349Z,27.02
2018-05-11T16:08:54.816Z,26.70
2018-05-11T16:11:22.317Z,26.59
2018-05-11T16:13:49.780Z,26.38
2018-05-11T16:16:17.249Z,25.91
2018-05-11T16:18:44.737Z,25.54
2018-05-11T16:21:12.209Z,25.01
2018-05-11T16:23:39.704Z,24.58
2018-05-11T16:26:07.190Z,24.38
2018-05-11T16:28:34.674Z,24.15
2018-05-11T16:31:02.135Z,23.88
2018-05-11T16:33:29.621Z,23.72
2018-05-11T16:35:57.144Z,23.53
2018-05-11T16:38:24.605Z,23.45
2018-05-11T16:40:52.104Z,23.34
2018-05-11T16:43:19.604Z,23.18
2018-05-11T16:45:47.078Z,22.95
2018-05-11T16:48:14.550Z,22.81
2018-05-11T16:50:42.062Z,22.71
2018-05-11T16:53:09.563Z,22.66
2018-05-11T16:55:37.041Z,22.64
2018-05-11T16:58:04.535Z,22.62
2018-05-11T17:00:32.014Z,22.52
2018-05-11T17:02:59.536Z,22.44
2018-05-11T17:05:26.986Z,22.34
2018-05-11T17:07:54.479Z,22.28
2018-05-11T17:10:21.952Z,22.25
2018-05-11T17:12:49.414Z,22.26
2018-05-11T17:15:16.906Z,22.23
2018-05-11T17:17:44.397Z,22.16
2018-05-11T17:20:11.882Z,22.09
2018-05-11T17:22:39.449Z,21.96
2018-05-11T17:25:06.900Z,21.88
2018-05-11T17:27:34.376Z,21.79
2018-05-11T17:30:01.916Z,21.72
2018-05-11T17:32:29.361Z,21.66
2018-05-11T17:34:56.877Z,21.62
2018-05-11T17:37:24.470Z,21.55
2018-05-11T17:39:51.948Z,21.50
2018-05-11T17:42:19.449Z,21.44
2018-05-11T17:44:46.923Z,21.37
2018-05-11T17:47:14.417Z,21.29
2018-05-11T17:49:41.897Z,21.26
2018-05-11T17:52:09.393Z,21.23
2018-05-11T17:54:36.864Z,21.17
2018-05-11T17:57:04.465Z,21.11
2018-05-11T17:59:32.191Z,21.02
2018-05-11T18:01:59.655Z,20.99
2018-05-11T18:04:27.159Z,20.95
2018-05-11T18:06:54.621Z,20.89
2018-05-11T18:09:22.098Z,20.83
2018-05-11T18:11:49.569Z,20.77
2018-05-11T18:14:17.058Z,20.72
2018-05-11T18:16:44.518Z,20.67
2018-05-11T18:19:12.025Z,20.62
2018-05-11T18:21:40.941Z,20.54
2018-05-11T18:24:08.402Z,20.49
2018-05-11T18:26:36.148Z,20.43
2018-05-11T18:29:03.843Z,20.33
2018-05-11T18:31:31.355Z,20.25
2018-05-11T18:33:58.985Z,20.20
2018-05-11T18:36:26.499Z,20.13
2018-05-11T18:38:53.984Z,20.08
2018-05-11T18:41:21.872Z,20.00
2018-05-11T18:43:49.354Z,19.94
2018-05-11T18:46:17.106Z,19.88
2018-05-11T18:48:44.754Z,19.81
2018-05-11T18:51:12.229Z,19.74
2018-05-11T18:53:40.178Z,19.64
2018-05-11T18:56:07.552Z,19.51
2018-05-11T18:58:35.046Z,19.35
2018-05-11T19:01:02.575Z,19.24
2018-05-11T19:03:30.083Z,19.14
2018-05-11T19:05:57.568Z,19.05
2018-05-11T19:08:25.065Z,18.96
2018-05-11T19:10:52.781Z,18.83
2018-05-11T19:13:20.505Z,18.72
2018-05-11T19:18:22.006Z,18.53
2018-05-11T19:20:49.520Z,18.43
2018-05-11T19:23:17.021Z,18.36
2018-05-11T19:25:44.523Z,18.27
2018-05-11T19:28:12.018Z,18.23
2018-05-11T19:30:39.489Z,18.16
2018-05-11T19:33:07.008Z,18.05
2018-05-11T19:35:34.499Z,17.99
2018-05-11T19:38:02.012Z,17.93
2018-05-11T19:40:29.493Z,17.88
2018-05-11T19:42:57.017Z,17.79
2018-05-11T19:45:24.545Z,17.72
2018-05-11T19:47:52.081Z,17.64
2018-05-11T19:50:19.643Z,17.56
2018-05-11T19:52:47.086Z,17.50
2018-05-11T19:55:14.601Z,17.41
2018-05-11T19:57:42.109Z,17.33
2018-05-11T20:00:09.669Z,17.27
2018-05-11T20:02:37.150Z,17.24
2018-05-11T20:05:04.688Z,17.20
2018-05-11T20:07:32.175Z,17.17
2018-05-11T20:09:59.772Z,17.14
2018-05-11T20:12:27.210Z,17.09
2018-05-11T20:14:54.692Z,17.04
2018-05-11T20:17:22.197Z,17.00
2018-05-11T20:19:49.675Z,16.97
2018-05-11T20:22:17.174Z,16.92
2018-05-11T20:24:44.671Z,16.89
2018-05-11T20:27:12.172Z,16.82
2018-05-11T20:29:39.680Z,16.80
2018-05-11T20:32:07.189Z,16.74
2018-05-11T20:34:34.673Z,16.69
2018-05-11T20:37:02.155Z,16.64
2018-05-11T20:39:29.641Z,16.60
2018-05-11T20:41:57.118Z,16.57
2018-05-11T20:44:24.687Z,16.56
2018-05-11T20:46:52.167Z,16.52
2018-05-11T20:49:19.682Z,16.49
2018-05-11T20:51:47.423Z,16.43
2018-05-11T20:54:15.084Z,16.40
2018-05-11T20:56:42.758Z,16.36
2018-05-11T20:59:10.563Z,16.33
2018-05-11T21:01:38.289Z,16.31
2018-05-11T21:04:05.759Z,16.31
2018-05-11T21:06:33.274Z,16.26
2018-05-11T21:09:01.050Z,16.20
2018-05-11T21:11:28.665Z,16.17
2018-05-11T21:13:56.614Z,16.12
2018-05-11T21:16:24.092Z,16.07
2018-05-11T21:18:51.601Z,16.04
2018-05-11T21:21:19.099Z,15.99
2018-05-11T21:23:46.969Z,15.98
2018-05-11T21:26:14.446Z,16.00
2018-05-11T21:28:42.021Z,15.95
2018-05-11T21:31:09.547Z,15.94
2018-05-11T21:33:37.107Z,15.90
2018-05-11T21:36:04.646Z,15.86
2018-05-11T21:38:32.239Z,15.85
2018-05-11T21:41:00.122Z,15.80
2018-05-11T21:43:27.793Z,15.74
2018-05-11T21:45:55.284Z,15.70
2018-05-11T21:48:23.054Z,15.67
2018-05-11T21:50:50.873Z,15.62
2018-05-11T21:53:18.611Z,15.57
2018-05-11T21:55:46.091Z,15.54
2018-05-11T21:58:13.604Z,15.49
2018-05-11T22:00:41.304Z,15.44
2018-05-11T22:03:08.793Z,15.31
2018-05-11T22:05:36.257Z,15.17
2018-05-11T22:08:03.741Z,15.11
2018-05-11T22:10:31.250Z,15.10
2018-05-11T22:12:58.976Z,15.07
2018-05-11T22:15:26.493Z,15.04
2018-05-11T22:17:54.216Z,15.03
2018-05-11T22:20:21.773Z,15.01
2018-05-11T22:22:49.275Z,14.97
2018-05-11T22:25:17.054Z,14.95
2018-05-11T22:27:44.630Z,14.91
2018-05-11T22:30:12.126Z,14.89
2018-05-11T22:32:39.591Z,14.85
2018-05-11T22:35:08.367Z,14.82
2018-05-11T22:37:35.906Z,14.77
2018-05-11T22:40:03.412Z,14.71
2018-05-11T22:42:30.887Z,14.67
2018-05-11T22:44:58.374Z,14.64
2018-05-11T22:47:25.881Z,14.63
2018-05-11T22:49:53.383Z,14.64
2018-05-11T22:52:20.871Z,14.65
2018-05-11T22:54:48.358Z,14.63
2018-05-11T22:57:15.845Z,14.64
2018-05-11T22:59:43.338Z,14.63
2018-05-11T23:02:10.832Z,14.59
2018-05-11T23:04:38.396Z,14.56
2018-05-11T23:07:05.959Z,14.54
2018-05-11T23:09:33.424Z,14.43
2018-05-11T23:12:01.128Z,14.34
2018-05-11T23:14:28.625Z,14.29
2018-05-11T23:16:56.117Z,14.24
2018-05-11T23:19:23.653Z,14.20
2018-05-11T23:21:51.136Z,14.14
2018-05-11T23:24:18.624Z,14.11
2018-05-11T23:26:46.110Z,14.06
2018-05-11T23:29:13.574Z,14.02
2018-05-11T23:31:41.129Z,13.99
2018-05-11T23:34:08.608Z,13.97
2018-05-11T23:36:36.119Z,13.97
2018-05-11T23:39:03.605Z,13.94
2018-05-11T23:41:31.083Z,13.94
2018-05-11T23:43:58.544Z,13.95
2018-05-11T23:46:26.024Z,13.92
2018-05-11T23:48:53.502Z,13.92
2018-05-11T23:51:20.989Z,13.90
2018-05-11T23:53:48.449Z,13.87
2018-05-11T23:56:15.922Z,13.84
2018-05-11T23:58:43.417Z,13.80
